CLJ22M EGFF-EGJB
Flight info
| Callsign | CLJ22M |
|---|---|
| Flight time | 0h 31m |
| Altitude | 9000 |
| Route | EXMOR N40 KLAKI L149 BIGNO |
| Aircraft | RJ1H/M-SDFGIRWY/LB1 |
Departure
| Time | 2026-04-21 13:01 |
|---|---|
| Airport | Cardiff International Airport (EGFF) |
Arrival
| Time | 2026-04-21 13:32 |
|---|---|
| Airport | Guernsey Airport (EGJB) |
| Time | Latitude | Longitude | Altitude | Speed | Heading |
|---|---|---|---|---|---|
| 2026-04-21 12:28 | 51.39772 | -3.33725 | 209 ft | 0 kts | 298° |
| 2026-04-21 12:53 | 51.39766 | -3.33699 | 222 ft | 2 kts | 280° |
| 2026-04-21 12:53 | 51.39757 | -3.33664 | 222 ft | 4 kts | 319° |
| 2026-04-21 12:53 | 51.39734 | -3.33656 | 222 ft | 4 kts | 17° |
| 2026-04-21 12:54 | 51.39727 | -3.33660 | 222 ft | 3 kts | 26° |
| 2026-04-21 12:57 | 51.39732 | -3.33653 | 222 ft | 2 kts | 69° |
| 2026-04-21 12:57 | 51.39711 | -3.33657 | 222 ft | 8 kts | 212° |
| 2026-04-21 12:57 | 51.39667 | -3.33733 | 222 ft | 12 kts | 268° |
| 2026-04-21 12:58 | 51.39703 | -3.33876 | 222 ft | 16 kts | 298° |
| 2026-04-21 12:58 | 51.39761 | -3.34059 | 222 ft | 21 kts | 296° |
| 2026-04-21 12:58 | 51.39830 | -3.34285 | 222 ft | 25 kts | 295° |
| 2026-04-21 12:58 | 51.39908 | -3.34544 | 218 ft | 27 kts | 297° |
| 2026-04-21 12:59 | 51.40004 | -3.34812 | 219 ft | 28 kts | 295° |
| 2026-04-21 12:59 | 51.40084 | -3.35101 | 216 ft | 29 kts | 294° |
| 2026-04-21 12:59 | 51.40154 | -3.35366 | 215 ft | 21 kts | 275° |
| 2026-04-21 12:59 | 51.40068 | -3.35543 | 219 ft | 19 kts | 197° |
| 2026-04-21 13:00 | 51.40032 | -3.35507 | 214 ft | 0 kts | 113° |
| 2026-04-21 13:00 | 51.40023 | -3.35475 | 219 ft | 21 kts | 111° |
| 2026-04-21 13:00 | 51.39837 | -3.34878 | 221 ft | 96 kts | 116° |
| 2026-04-21 13:00 | 51.39474 | -3.33684 | 409 ft | 124 kts | 112° |
| 2026-04-21 13:01 | 51.39024 | -3.32496 | 757 ft | 132 kts | 118° |
| 2026-04-21 13:01 | 51.38530 | -3.31180 | 1244 ft | 136 kts | 109° |
| 2026-04-21 13:01 | 51.38120 | -3.29724 | 1298 ft | 153 kts | 107° |
| 2026-04-21 13:01 | 51.37665 | -3.28076 | 1306 ft | 170 kts | 113° |
| 2026-04-21 13:02 | 51.36673 | -3.26869 | 1313 ft | 199 kts | 159° |
| 2026-04-21 13:02 | 51.35273 | -3.26611 | 1336 ft | 211 kts | 169° |
| 2026-04-21 13:02 | 51.32151 | -3.26287 | 1468 ft | 239 kts | 171° |
| 2026-04-21 13:03 | 51.30499 | -3.26629 | 2036 ft | 249 kts | 201° |
| 2026-04-21 13:03 | 51.29116 | -3.28328 | 2649 ft | 255 kts | 221° |
| 2026-04-21 13:03 | 51.27860 | -3.30342 | 3310 ft | 256 kts | 223° |
| 2026-04-21 13:03 | 51.26642 | -3.32439 | 4051 ft | 259 kts | 224° |
| 2026-04-21 13:04 | 51.25272 | -3.34152 | 4817 ft | 249 kts | 195° |
| 2026-04-21 13:04 | 51.23618 | -3.34847 | 5651 ft | 246 kts | 185° |
| 2026-04-21 13:04 | 51.21924 | -3.35331 | 6483 ft | 248 kts | 182° |
| 2026-04-21 13:04 | 51.20204 | -3.35683 | 7274 ft | 251 kts | 180° |
| 2026-04-21 13:05 | 51.18449 | -3.35917 | 8085 ft | 253 kts | 174° |
| 2026-04-21 13:05 | 51.16808 | -3.35174 | 8915 ft | 245 kts | 144° |
| 2026-04-21 13:05 | 51.15379 | -3.33535 | 9185 ft | 257 kts | 139° |
| 2026-04-21 13:05 | 51.13977 | -3.31820 | 9266 ft | 249 kts | 139° |
| 2026-04-21 13:06 | 51.12566 | -3.30043 | 9311 ft | 271 kts | 139° |
| 2026-04-21 13:06 | 51.11087 | -3.28168 | 9310 ft | 272 kts | 139° |
| 2026-04-21 13:06 | 51.09596 | -3.26307 | 9312 ft | 273 kts | 139° |
| 2026-04-21 13:06 | 51.08073 | -3.24506 | 9311 ft | 274 kts | 147° |
| 2026-04-21 13:07 | 51.06254 | -3.23708 | 9322 ft | 282 kts | 175° |
| 2026-04-21 13:07 | 51.04321 | -3.23758 | 9309 ft | 284 kts | 178° |
| 2026-04-21 13:07 | 51.02344 | -3.23816 | 9303 ft | 284 kts | 177° |
| 2026-04-21 13:07 | 51.00366 | -3.23882 | 9306 ft | 284 kts | 178° |
| 2026-04-21 13:08 | 50.98391 | -3.23951 | 9299 ft | 284 kts | 178° |
| 2026-04-21 13:08 | 50.96414 | -3.24006 | 9289 ft | 284 kts | 177° |
| 2026-04-21 13:08 | 50.94442 | -3.24032 | 9283 ft | 283 kts | 176° |
| 2026-04-21 13:08 | 50.92464 | -3.24029 | 9295 ft | 284 kts | 176° |
| 2026-04-21 13:09 | 50.90486 | -3.24016 | 9288 ft | 284 kts | 176° |
| 2026-04-21 13:09 | 50.88511 | -3.23984 | 9280 ft | 284 kts | 176° |
| 2026-04-21 13:09 | 50.86538 | -3.23945 | 9275 ft | 286 kts | 175° |
| 2026-04-21 13:09 | 50.84550 | -3.23899 | 10131 ft | 283 kts | 176° |
| 2026-04-21 13:10 | 50.82659 | -3.23848 | 11291 ft | 269 kts | 178° |
| 2026-04-21 13:10 | 50.80808 | -3.23796 | 12284 ft | 266 kts | 178° |
| 2026-04-21 13:10 | 50.78931 | -3.23747 | 12984 ft | 273 kts | 179° |
| 2026-04-21 13:10 | 50.77015 | -3.23703 | 13720 ft | 278 kts | 180° |
| 2026-04-21 13:11 | 50.75064 | -3.23516 | 14392 ft | 284 kts | 174° |
| 2026-04-21 13:11 | 50.73101 | -3.23064 | 14983 ft | 290 kts | 172° |
| 2026-04-21 13:11 | 50.71065 | -3.22511 | 15182 ft | 302 kts | 171° |
| 2026-04-21 13:11 | 50.68912 | -3.21888 | 15273 ft | 324 kts | 171° |
| 2026-04-21 13:12 | 50.66680 | -3.21237 | 15280 ft | 326 kts | 171° |
| 2026-04-21 13:12 | 50.64455 | -3.20583 | 15274 ft | 325 kts | 171° |
| 2026-04-21 13:12 | 50.62234 | -3.19936 | 15269 ft | 325 kts | 171° |
| 2026-04-21 13:12 | 50.60013 | -3.19304 | 15269 ft | 325 kts | 172° |
| 2026-04-21 13:13 | 50.57775 | -3.18683 | 15263 ft | 326 kts | 171° |
| 2026-04-21 13:13 | 50.55548 | -3.18075 | 15260 ft | 325 kts | 172° |
| 2026-04-21 13:13 | 50.53318 | -3.17469 | 15260 ft | 325 kts | 172° |
| 2026-04-21 13:13 | 50.51085 | -3.16858 | 15257 ft | 326 kts | 172° |
| 2026-04-21 13:14 | 50.48851 | -3.16250 | 15257 ft | 325 kts | 172° |
| 2026-04-21 13:14 | 50.46615 | -3.15644 | 15252 ft | 326 kts | 172° |
| 2026-04-21 13:14 | 50.44382 | -3.15040 | 15252 ft | 325 kts | 172° |
| 2026-04-21 13:14 | 50.42150 | -3.14436 | 15252 ft | 325 kts | 172° |
| 2026-04-21 13:15 | 50.39946 | -3.13838 | 15245 ft | 326 kts | 172° |
| 2026-04-21 13:15 | 50.37721 | -3.13164 | 15248 ft | 326 kts | 165° |
| 2026-04-21 13:15 | 50.35604 | -3.11876 | 15253 ft | 327 kts | 156° |
| 2026-04-21 13:15 | 50.33559 | -3.10295 | 15250 ft | 328 kts | 153° |
| 2026-04-21 13:16 | 50.31539 | -3.08628 | 15253 ft | 328 kts | 153° |
| 2026-04-21 13:16 | 50.29530 | -3.06922 | 15246 ft | 328 kts | 152° |
| 2026-04-21 13:16 | 50.27525 | -3.05203 | 15247 ft | 329 kts | 152° |
| 2026-04-21 13:16 | 50.25522 | -3.03483 | 15246 ft | 328 kts | 152° |
| 2026-04-21 13:17 | 50.23517 | -3.01779 | 15243 ft | 328 kts | 153° |
| 2026-04-21 13:17 | 50.21501 | -3.00090 | 15238 ft | 328 kts | 153° |
| 2026-04-21 13:17 | 50.19509 | -2.98432 | 15239 ft | 329 kts | 153° |
| 2026-04-21 13:17 | 50.17490 | -2.96753 | 15239 ft | 328 kts | 153° |
| 2026-04-21 13:18 | 50.15473 | -2.95080 | 15238 ft | 328 kts | 153° |
| 2026-04-21 13:18 | 50.13450 | -2.93414 | 15235 ft | 329 kts | 153° |
| 2026-04-21 13:18 | 50.11428 | -2.91757 | 15236 ft | 328 kts | 153° |
| 2026-04-21 13:18 | 50.09403 | -2.90100 | 15233 ft | 329 kts | 154° |
| 2026-04-21 13:19 | 50.07381 | -2.88443 | 15235 ft | 328 kts | 153° |
| 2026-04-21 13:19 | 50.05358 | -2.86782 | 15205 ft | 329 kts | 153° |
| 2026-04-21 13:19 | 50.03325 | -2.85108 | 14970 ft | 330 kts | 153° |
| 2026-04-21 13:19 | 50.01301 | -2.83445 | 14724 ft | 327 kts | 153° |
| 2026-04-21 13:20 | 49.99945 | -2.82458 | 14560 ft | 324 kts | 160° |
| 2026-04-21 13:20 | 49.97080 | -2.81076 | 14190 ft | 321 kts | 166° |
| 2026-04-21 13:20 | 49.94921 | -2.80221 | 13802 ft | 319 kts | 167° |
| 2026-04-21 13:20 | 49.92772 | -2.79421 | 13409 ft | 316 kts | 167° |
| 2026-04-21 13:21 | 49.90638 | -2.78628 | 12986 ft | 315 kts | 167° |
| 2026-04-21 13:21 | 49.88531 | -2.77840 | 12474 ft | 316 kts | 166° |
| 2026-04-21 13:21 | 49.86395 | -2.77035 | 11960 ft | 315 kts | 166° |
| 2026-04-21 13:21 | 49.84270 | -2.76214 | 11463 ft | 314 kts | 165° |
| 2026-04-21 13:22 | 49.82153 | -2.75394 | 10970 ft | 313 kts | 165° |
| 2026-04-21 13:22 | 49.80055 | -2.74571 | 10484 ft | 311 kts | 164° |
| 2026-04-21 13:22 | 49.77971 | -2.73743 | 9990 ft | 309 kts | 164° |
| 2026-04-21 13:22 | 49.76591 | -2.73200 | 9651 ft | 307 kts | 164° |
| 2026-04-21 13:23 | 49.74530 | -2.72392 | 9102 ft | 304 kts | 164° |
| 2026-04-21 13:23 | 49.72484 | -2.71587 | 8583 ft | 302 kts | 163° |
| 2026-04-21 13:23 | 49.70461 | -2.70791 | 8073 ft | 299 kts | 162° |
| 2026-04-21 13:23 | 49.68454 | -2.69999 | 7601 ft | 295 kts | 163° |
| 2026-04-21 13:24 | 49.66487 | -2.69225 | 7225 ft | 289 kts | 162° |
| 2026-04-21 13:24 | 49.64551 | -2.68466 | 6849 ft | 284 kts | 162° |
| 2026-04-21 13:24 | 49.62653 | -2.67731 | 6471 ft | 279 kts | 163° |
| 2026-04-21 13:24 | 49.60714 | -2.67649 | 6079 ft | 286 kts | 190° |
| 2026-04-21 13:25 | 49.58916 | -2.68993 | 5700 ft | 288 kts | 206° |
| 2026-04-21 13:25 | 49.57217 | -2.70607 | 5311 ft | 285 kts | 207° |
| 2026-04-21 13:25 | 49.55561 | -2.72199 | 4934 ft | 283 kts | 207° |
| 2026-04-21 13:25 | 49.53938 | -2.73914 | 4535 ft | 285 kts | 217° |
| 2026-04-21 13:26 | 49.52828 | -2.76437 | 4225 ft | 287 kts | 246° |
| 2026-04-21 13:26 | 49.52151 | -2.79305 | 3967 ft | 282 kts | 248° |
| 2026-04-21 13:26 | 49.51494 | -2.82129 | 3708 ft | 279 kts | 249° |
| 2026-04-21 13:26 | 49.50757 | -2.84847 | 3427 ft | 271 kts | 232° |
| 2026-04-21 13:27 | 49.49382 | -2.86643 | 3154 ft | 253 kts | 195° |
| 2026-04-21 13:27 | 49.47730 | -2.86944 | 2888 ft | 231 kts | 159° |
| 2026-04-21 13:27 | 49.46274 | -2.86106 | 2646 ft | 221 kts | 148° |
| 2026-04-21 13:27 | 49.44870 | -2.85154 | 2392 ft | 219 kts | 148° |
| 2026-04-21 13:28 | 49.43495 | -2.84164 | 2153 ft | 217 kts | 146° |
| 2026-04-21 13:28 | 49.42295 | -2.82922 | 2031 ft | 197 kts | 119° |
| 2026-04-21 13:28 | 49.42018 | -2.81067 | 2024 ft | 178 kts | 79° |
| 2026-04-21 13:28 | 49.42275 | -2.79260 | 1994 ft | 169 kts | 80° |
| 2026-04-21 13:29 | 49.42446 | -2.77543 | 1964 ft | 153 kts | 81° |
| 2026-04-21 13:29 | 49.42606 | -2.76022 | 1993 ft | 137 kts | 80° |
| 2026-04-21 13:29 | 49.42772 | -2.74507 | 2019 ft | 127 kts | 79° |
| 2026-04-21 13:29 | 49.42920 | -2.73145 | 1872 ft | 132 kts | 80° |
| 2026-04-21 13:30 | 49.43067 | -2.71771 | 1676 ft | 128 kts | 81° |
| 2026-04-21 13:30 | 49.43182 | -2.70498 | 1509 ft | 111 kts | 84° |
| 2026-04-21 13:30 | 49.43239 | -2.69357 | 1364 ft | 103 kts | 85° |
| 2026-04-21 13:30 | 49.43294 | -2.68275 | 1093 ft | 106 kts | 82° |
| 2026-04-21 13:31 | 49.43312 | -2.67155 | 1037 ft | 104 kts | 83° |
| 2026-04-21 13:31 | 49.43344 | -2.66010 | 998 ft | 109 kts | 82° |
| 2026-04-21 13:31 | 49.43395 | -2.64811 | 828 ft | 118 kts | 85° |
| 2026-04-21 13:31 | 49.43414 | -2.63549 | 644 ft | 117 kts | 84° |
| 2026-04-21 13:32 | 49.43448 | -2.62291 | 491 ft | 118 kts | 82° |
| 2026-04-21 13:32 | 49.43476 | -2.61058 | 335 ft | 111 kts | 84° |
| 2026-04-21 13:32 | 49.43501 | -2.60031 | 348 ft | 75 kts | 88° |
| 2026-04-21 13:32 | 49.43514 | -2.59524 | 350 ft | 23 kts | 87° |
| 2026-04-21 13:33 | 49.43521 | -2.59308 | 348 ft | 18 kts | 86° |
| 2026-04-21 13:33 | 49.43457 | -2.59196 | 348 ft | 10 kts | 177° |
| 2026-04-21 13:33 | 49.43443 | -2.59196 | 344 ft | 2 kts | 179° |
| 2026-04-21 13:33 | 49.43421 | -2.59196 | 351 ft | 4 kts | 181° |
| 2026-04-21 13:34 | 49.43386 | -2.59198 | 344 ft | 5 kts | 184° |
| 2026-04-21 13:34 | 49.43372 | -2.59247 | 344 ft | 6 kts | 267° |
| 2026-04-21 13:34 | 49.43370 | -2.59312 | 344 ft | 0 kts | 267° |
| 2026-04-21 13:34 | 49.43370 | -2.59313 | 344 ft | 0 kts | 267° |
| 2026-04-21 13:35 | 49.43369 | -2.59340 | 344 ft | 6 kts | 267° |
| 2026-04-21 13:35 | 49.43342 | -2.59402 | 346 ft | 9 kts | 190° |
| 2026-04-21 13:35 | 49.43301 | -2.59402 | 344 ft | 1 kts | 177° |